sensor_id;sensor_type;location;lat;lon;timestamp;P1;durP1;ratioP1;P2;durP2;ratioP2
3081;SDS011;1551;51.046;7.010;2022-09-14T00:00:00;8.90;;;7.05;;
3081;SDS011;1551;51.046;7.010;2022-09-14T00:02:48;9.10;;;7.78;;
3081;SDS011;1551;51.046;7.010;2022-09-14T00:05:38;6.28;;;4.40;;
3081;SDS011;1551;51.046;7.010;2022-09-14T00:08:27;10.13;;;8.60;;
3081;SDS011;1551;51.046;7.010;2022-09-14T00:11:16;11.57;;;9.80;;
3081;SDS011;1551;51.046;7.010;2022-09-14T00:14:05;9.77;;;6.33;;
3081;SDS011;1551;51.046;7.010;2022-09-14T00:16:55;10.75;;;8.23;;
3081;SDS011;1551;51.046;7.010;2022-09-14T00:19:44;7.07;;;4.95;;
3081;SDS011;1551;51.046;7.010;2022-09-14T00:22:32;5.60;;;4.57;;
3081;SDS011;1551;51.046;7.010;2022-09-14T00:25:22;10.77;;;9.67;;
3081;SDS011;1551;51.046;7.010;2022-09-14T00:28:11;9.75;;;7.20;;
3081;SDS011;1551;51.046;7.010;2022-09-14T00:31:02;8.43;;;6.78;;
3081;SDS011;1551;51.046;7.010;2022-09-14T00:33:51;9.20;;;7.33;;
3081;SDS011;1551;51.046;7.010;2022-09-14T00:36:45;10.23;;;7.63;;
3081;SDS011;1551;51.046;7.010;2022-09-14T00:39:35;7.57;;;6.20;;
3081;SDS011;1551;51.046;7.010;2022-09-14T00:42:24;12.55;;;11.23;;
3081;SDS011;1551;51.046;7.010;2022-09-14T00:45:17;14.17;;;11.37;;
3081;SDS011;1551;51.046;7.010;2022-09-14T00:48:08;16.30;;;12.23;;
3081;SDS011;1551;51.046;7.010;2022-09-14T00:50:57;18.30;;;15.20;;
3081;SDS011;1551;51.046;7.010;2022-09-14T00:53:46;18.73;;;14.80;;
3081;SDS011;1551;51.046;7.010;2022-09-14T00:56:35;18.77;;;15.90;;
3081;SDS011;1551;51.046;7.010;2022-09-14T00:59:26;18.73;;;15.63;;
3081;SDS011;1551;51.046;7.010;2022-09-14T01:02:19;20.25;;;16.70;;
3081;SDS011;1551;51.046;7.010;2022-09-14T01:05:10;21.60;;;15.60;;
3081;SDS011;1551;51.046;7.010;2022-09-14T01:14:24;20.20;;;15.43;;
3081;SDS011;1551;51.046;7.010;2022-09-14T01:17:28;20.70;;;16.67;;
3081;SDS011;1551;51.046;7.010;2022-09-14T01:20:26;21.77;;;17.30;;
3081;SDS011;1551;51.046;7.010;2022-09-14T01:41:11;21.30;;;16.17;;
3081;SDS011;1551;51.046;7.010;2022-09-14T01:44:46;22.85;;;17.15;;
3081;SDS011;1551;51.046;7.010;2022-09-14T01:47:25;25.00;;;18.92;;
3081;SDS011;1551;51.046;7.010;2022-09-14T01:50:26;25.33;;;20.48;;
3081;SDS011;1551;51.046;7.010;2022-09-14T01:53:37;28.00;;;19.42;;
3081;SDS011;1551;51.046;7.010;2022-09-14T01:56:35;28.85;;;21.25;;
3081;SDS011;1551;51.046;7.010;2022-09-14T01:59:29;25.38;;;20.05;;
3081;SDS011;1551;51.046;7.010;2022-09-14T02:03:06;24.98;;;19.65;;
3081;SDS011;1551;51.046;7.010;2022-09-14T02:05:45;25.58;;;19.70;;
3081;SDS011;1551;51.046;7.010;2022-09-14T02:08:42;25.98;;;20.63;;
3081;SDS011;1551;51.046;7.010;2022-09-14T02:11:31;22.80;;;19.73;;
3081;SDS011;1551;51.046;7.010;2022-09-14T02:14:20;23.98;;;18.75;;
3081;SDS011;1551;51.046;7.010;2022-09-14T02:17:10;25.15;;;20.23;;
3081;SDS011;1551;51.046;7.010;2022-09-14T02:20:00;25.65;;;19.58;;
3081;SDS011;1551;51.046;7.010;2022-09-14T02:22:52;13.68;;;10.90;;
3081;SDS011;1551;51.046;7.010;2022-09-14T02:25:41;26.55;;;20.58;;
3081;SDS011;1551;51.046;7.010;2022-09-14T02:28:30;21.77;;;15.90;;
3081;SDS011;1551;51.046;7.010;2022-09-14T02:31:23;25.60;;;18.35;;
3081;SDS011;1551;51.046;7.010;2022-09-14T02:34:40;25.42;;;20.02;;
3081;SDS011;1551;51.046;7.010;2022-09-14T02:37:49;24.13;;;18.95;;
3081;SDS011;1551;51.046;7.010;2022-09-14T02:40:54;27.27;;;21.23;;
3081;SDS011;1551;51.046;7.010;2022-09-14T02:50:10;25.42;;;19.80;;
3081;SDS011;1551;51.046;7.010;2022-09-14T02:53:13;20.87;;;17.60;;
3081;SDS011;1551;51.046;7.010;2022-09-14T02:56:07;25.17;;;20.52;;
3081;SDS011;1551;51.046;7.010;2022-09-14T02:58:59;25.85;;;20.15;;
3081;SDS011;1551;51.046;7.010;2022-09-14T03:01:48;25.27;;;20.58;;
3081;SDS011;1551;51.046;7.010;2022-09-14T03:04:37;20.02;;;16.63;;
3081;SDS011;1551;51.046;7.010;2022-09-14T03:07:25;21.23;;;15.50;;
3081;SDS011;1551;51.046;7.010;2022-09-14T03:10:15;21.00;;;16.80;;
3081;SDS011;1551;51.046;7.010;2022-09-14T03:13:04;23.90;;;20.17;;
3081;SDS011;1551;51.046;7.010;2022-09-14T03:15:53;26.23;;;20.70;;
3081;SDS011;1551;51.046;7.010;2022-09-14T03:18:42;26.92;;;21.20;;
3081;SDS011;1551;51.046;7.010;2022-09-14T03:21:31;24.25;;;19.40;;
3081;SDS011;1551;51.046;7.010;2022-09-14T03:24:20;26.30;;;20.92;;
3081;SDS011;1551;51.046;7.010;2022-09-14T03:27:09;30.05;;;22.27;;
3081;SDS011;1551;51.046;7.010;2022-09-14T03:29:59;26.77;;;19.95;;
3081;SDS011;1551;51.046;7.010;2022-09-14T03:32:48;23.65;;;19.15;;
3081;SDS011;1551;51.046;7.010;2022-09-14T03:35:37;24.42;;;20.27;;
3081;SDS011;1551;51.046;7.010;2022-09-14T03:38:25;25.30;;;19.95;;
3081;SDS011;1551;51.046;7.010;2022-09-14T03:41:18;24.17;;;18.60;;
3081;SDS011;1551;51.046;7.010;2022-09-14T03:44:07;26.93;;;20.47;;
3081;SDS011;1551;51.046;7.010;2022-09-14T03:46:57;24.63;;;19.67;;
3081;SDS011;1551;51.046;7.010;2022-09-14T03:49:46;24.20;;;19.00;;
3081;SDS011;1551;51.046;7.010;2022-09-14T03:52:36;20.02;;;17.92;;
3081;SDS011;1551;51.046;7.010;2022-09-14T03:55:25;16.33;;;13.07;;
3081;SDS011;1551;51.046;7.010;2022-09-14T03:58:14;18.77;;;16.05;;
3081;SDS011;1551;51.046;7.010;2022-09-14T04:01:04;11.13;;;9.30;;
3081;SDS011;1551;51.046;7.010;2022-09-14T04:03:54;12.68;;;11.13;;
3081;SDS011;1551;51.046;7.010;2022-09-14T04:06:43;9.13;;;8.13;;
3081;SDS011;1551;51.046;7.010;2022-09-14T04:09:32;9.35;;;7.00;;
3081;SDS011;1551;51.046;7.010;2022-09-14T04:12:21;8.13;;;7.10;;
3081;SDS011;1551;51.046;7.010;2022-09-14T04:15:10;7.90;;;5.90;;
3081;SDS011;1551;51.046;7.010;2022-09-14T04:17:59;6.63;;;5.10;;
3081;SDS011;1551;51.046;7.010;2022-09-14T04:20:58;5.53;;;4.47;;
3081;SDS011;1551;51.046;7.010;2022-09-14T04:23:51;6.45;;;5.75;;
3081;SDS011;1551;51.046;7.010;2022-09-14T04:26:42;8.18;;;6.03;;
3081;SDS011;1551;51.046;7.010;2022-09-14T04:29:32;5.88;;;4.38;;
3081;SDS011;1551;51.046;7.010;2022-09-14T04:32:21;8.77;;;7.25;;
3081;SDS011;1551;51.046;7.010;2022-09-14T04:35:09;7.90;;;5.95;;
3081;SDS011;1551;51.046;7.010;2022-09-14T04:37:58;8.85;;;6.97;;
3081;SDS011;1551;51.046;7.010;2022-09-14T04:40:47;6.63;;;5.30;;
3081;SDS011;1551;51.046;7.010;2022-09-14T04:43:36;10.82;;;5.50;;
3081;SDS011;1551;51.046;7.010;2022-09-14T04:46:27;8.55;;;6.82;;
3081;SDS011;1551;51.046;7.010;2022-09-14T04:49:22;8.88;;;6.30;;
3081;SDS011;1551;51.046;7.010;2022-09-14T04:52:11;9.27;;;7.00;;
3081;SDS011;1551;51.046;7.010;2022-09-14T04:55:00;8.63;;;7.20;;
3081;SDS011;1551;51.046;7.010;2022-09-14T04:57:49;11.35;;;7.80;;
3081;SDS011;1551;51.046;7.010;2022-09-14T05:00:39;9.77;;;7.90;;
3081;SDS011;1551;51.046;7.010;2022-09-14T05:03:28;9.55;;;7.38;;
3081;SDS011;1551;51.046;7.010;2022-09-14T05:06:22;8.90;;;7.67;;
3081;SDS011;1551;51.046;7.010;2022-09-14T05:09:14;10.32;;;8.40;;
3081;SDS011;1551;51.046;7.010;2022-09-14T05:12:05;8.85;;;7.93;;
3081;SDS011;1551;51.046;7.010;2022-09-14T05:14:54;8.98;;;7.68;;
3081;SDS011;1551;51.046;7.010;2022-09-14T05:17:43;11.18;;;8.75;;
3081;SDS011;1551;51.046;7.010;2022-09-14T05:20:33;11.18;;;7.40;;
3081;SDS011;1551;51.046;7.010;2022-09-14T05:23:21;10.43;;;7.90;;
3081;SDS011;1551;51.046;7.010;2022-09-14T05:26:10;5.50;;;4.30;;
3081;SDS011;1551;51.046;7.010;2022-09-14T05:29:00;9.82;;;5.93;;
3081;SDS011;1551;51.046;7.010;2022-09-14T05:31:50;10.43;;;7.40;;
3081;SDS011;1551;51.046;7.010;2022-09-14T05:34:39;9.02;;;7.60;;
3081;SDS011;1551;51.046;7.010;2022-09-14T05:37:28;11.02;;;9.18;;
3081;SDS011;1551;51.046;7.010;2022-09-14T05:40:17;11.27;;;8.88;;
3081;SDS011;1551;51.046;7.010;2022-09-14T05:43:06;11.32;;;9.23;;
3081;SDS011;1551;51.046;7.010;2022-09-14T05:45:59;11.13;;;8.65;;
3081;SDS011;1551;51.046;7.010;2022-09-14T05:48:50;9.13;;;8.13;;
3081;SDS011;1551;51.046;7.010;2022-09-14T05:51:39;10.35;;;8.70;;
3081;SDS011;1551;51.046;7.010;2022-09-14T05:54:28;10.15;;;8.32;;
3081;SDS011;1551;51.046;7.010;2022-09-14T05:57:17;9.82;;;7.57;;
3081;SDS011;1551;51.046;7.010;2022-09-14T06:00:06;7.00;;;6.30;;
3081;SDS011;1551;51.046;7.010;2022-09-14T06:03:00;8.02;;;5.85;;
3081;SDS011;1551;51.046;7.010;2022-09-14T06:05:49;7.95;;;6.55;;
3081;SDS011;1551;51.046;7.010;2022-09-14T06:08:38;8.52;;;6.18;;
3081;SDS011;1551;51.046;7.010;2022-09-14T06:11:29;7.25;;;6.15;;
3081;SDS011;1551;51.046;7.010;2022-09-14T06:14:20;8.87;;;6.77;;
3081;SDS011;1551;51.046;7.010;2022-09-14T06:17:09;7.20;;;5.70;;
3081;SDS011;1551;51.046;7.010;2022-09-14T06:19:58;6.17;;;4.97;;
3081;SDS011;1551;51.046;7.010;2022-09-14T06:22:47;8.17;;;6.07;;
3081;SDS011;1551;51.046;7.010;2022-09-14T06:25:36;6.07;;;5.47;;
3081;SDS011;1551;51.046;7.010;2022-09-14T06:28:25;7.75;;;6.00;;
3081;SDS011;1551;51.046;7.010;2022-09-14T06:31:15;7.45;;;4.90;;
3081;SDS011;1551;51.046;7.010;2022-09-14T06:34:05;5.60;;;4.57;;
3081;SDS011;1551;51.046;7.010;2022-09-14T06:36:55;5.25;;;4.75;;
3081;SDS011;1551;51.046;7.010;2022-09-14T06:39:44;6.65;;;5.28;;
3081;SDS011;1551;51.046;7.010;2022-09-14T06:42:33;6.15;;;3.90;;
3081;SDS011;1551;51.046;7.010;2022-09-14T06:45:22;6.53;;;4.80;;
3081;SDS011;1551;51.046;7.010;2022-09-14T06:48:11;7.15;;;4.60;;
3081;SDS011;1551;51.046;7.010;2022-09-14T06:51:09;5.50;;;4.30;;
3081;SDS011;1551;51.046;7.010;2022-09-14T06:54:00;6.10;;;4.50;;
3081;SDS011;1551;51.046;7.010;2022-09-14T06:56:49;6.32;;;4.13;;
3081;SDS011;1551;51.046;7.010;2022-09-14T06:59:39;5.95;;;3.92;;
3081;SDS011;1551;51.046;7.010;2022-09-14T07:02:28;4.75;;;4.35;;
3081;SDS011;1551;51.046;7.010;2022-09-14T07:05:17;5.95;;;3.83;;
3081;SDS011;1551;51.046;7.010;2022-09-14T07:08:08;5.68;;;4.40;;
3081;SDS011;1551;51.046;7.010;2022-09-14T07:10:57;4.70;;;3.83;;
3081;SDS011;1551;51.046;7.010;2022-09-14T07:13:46;5.50;;;4.00;;
3081;SDS011;1551;51.046;7.010;2022-09-14T07:16:36;5.85;;;4.57;;
3081;SDS011;1551;51.046;7.010;2022-09-14T07:19:26;4.70;;;3.70;;
3081;SDS011;1551;51.046;7.010;2022-09-14T07:22:15;4.60;;;4.20;;
3081;SDS011;1551;51.046;7.010;2022-09-14T07:25:04;4.88;;;4.00;;
3081;SDS011;1551;51.046;7.010;2022-09-14T07:27:53;5.78;;;5.18;;
3081;SDS011;1551;51.046;7.010;2022-09-14T07:30:42;4.63;;;4.13;;
3081;SDS011;1551;51.046;7.010;2022-09-14T07:33:31;5.20;;;4.05;;
3081;SDS011;1551;51.046;7.010;2022-09-14T07:36:21;7.03;;;4.60;;
3081;SDS011;1551;51.046;7.010;2022-09-14T07:39:12;5.75;;;4.05;;
3081;SDS011;1551;51.046;7.010;2022-09-14T07:42:04;4.50;;;4.10;;
3081;SDS011;1551;51.046;7.010;2022-09-14T07:44:53;4.97;;;4.35;;
3081;SDS011;1551;51.046;7.010;2022-09-14T07:47:42;4.20;;;3.80;;
3081;SDS011;1551;51.046;7.010;2022-09-14T07:50:31;5.18;;;3.55;;
3081;SDS011;1551;51.046;7.010;2022-09-14T07:53:19;4.10;;;3.60;;
3081;SDS011;1551;51.046;7.010;2022-09-14T07:56:09;3.65;;;3.20;;
3081;SDS011;1551;51.046;7.010;2022-09-14T07:59:00;3.60;;;2.50;;
3081;SDS011;1551;51.046;7.010;2022-09-14T08:01:50;4.10;;;2.70;;
3081;SDS011;1551;51.046;7.010;2022-09-14T08:04:39;4.00;;;2.50;;
3081;SDS011;1551;51.046;7.010;2022-09-14T08:07:30;3.65;;;2.50;;
3081;SDS011;1551;51.046;7.010;2022-09-14T08:10:19;3.63;;;2.97;;
3081;SDS011;1551;51.046;7.010;2022-09-14T08:13:08;4.45;;;2.70;;
3081;SDS011;1551;51.046;7.010;2022-09-14T08:15:57;3.47;;;2.60;;
3081;SDS011;1551;51.046;7.010;2022-09-14T08:18:57;5.57;;;2.50;;
3081;SDS011;1551;51.046;7.010;2022-09-14T08:21:47;3.67;;;2.30;;
3081;SDS011;1551;51.046;7.010;2022-09-14T08:24:36;3.42;;;2.50;;
3081;SDS011;1551;51.046;7.010;2022-09-14T08:27:26;3.97;;;2.67;;
3081;SDS011;1551;51.046;7.010;2022-09-14T08:30:15;3.17;;;2.40;;
3081;SDS011;1551;51.046;7.010;2022-09-14T08:33:04;3.38;;;2.50;;
3081;SDS011;1551;51.046;7.010;2022-09-14T08:35:53;2.95;;;2.13;;
3081;SDS011;1551;51.046;7.010;2022-09-14T08:38:42;4.50;;;2.10;;
3081;SDS011;1551;51.046;7.010;2022-09-14T08:44:49;2.90;;;2.30;;
3081;SDS011;1551;51.046;7.010;2022-09-14T08:47:39;3.20;;;2.30;;
3081;SDS011;1551;51.046;7.010;2022-09-14T08:50:29;5.28;;;2.20;;
3081;SDS011;1551;51.046;7.010;2022-09-14T08:53:22;3.83;;;2.40;;
3081;SDS011;1551;51.046;7.010;2022-09-14T08:56:17;5.20;;;2.47;;
3081;SDS011;1551;51.046;7.010;2022-09-14T09:08:38;4.38;;;2.35;;
3081;SDS011;1551;51.046;7.010;2022-09-14T09:11:48;4.55;;;2.28;;
3081;SDS011;1551;51.046;7.010;2022-09-14T09:14:41;4.60;;;3.10;;
3081;SDS011;1551;51.046;7.010;2022-09-14T09:17:39;3.10;;;2.20;;
3081;SDS011;1551;51.046;7.010;2022-09-14T09:20:33;4.07;;;2.15;;
3081;SDS011;1551;51.046;7.010;2022-09-14T09:23:27;3.88;;;3.10;;
3081;SDS011;1551;51.046;7.010;2022-09-14T09:26:27;3.30;;;2.70;;
3081;SDS011;1551;51.046;7.010;2022-09-14T09:29:18;3.22;;;2.88;;
3081;SDS011;1551;51.046;7.010;2022-09-14T09:32:26;4.70;;;2.70;;
3081;SDS011;1551;51.046;7.010;2022-09-14T09:35:49;5.25;;;4.45;;
3081;SDS011;1551;51.046;7.010;2022-09-14T09:38:46;4.45;;;2.70;;
3081;SDS011;1551;51.046;7.010;2022-09-14T09:42:11;7.20;;;3.70;;
3081;SDS011;1551;51.046;7.010;2022-09-14T09:44:58;8.60;;;5.07;;
3081;SDS011;1551;51.046;7.010;2022-09-14T09:47:51;5.88;;;3.33;;
3081;SDS011;1551;51.046;7.010;2022-09-14T09:57:01;2.90;;;2.40;;
3081;SDS011;1551;51.046;7.010;2022-09-14T09:59:52;4.17;;;2.83;;
3081;SDS011;1551;51.046;7.010;2022-09-14T10:03:23;3.63;;;2.50;;
3081;SDS011;1551;51.046;7.010;2022-09-14T10:06:16;3.30;;;2.50;;
3081;SDS011;1551;51.046;7.010;2022-09-14T10:09:10;4.35;;;2.75;;
3081;SDS011;1551;51.046;7.010;2022-09-14T10:12:03;3.17;;;2.33;;
3081;SDS011;1551;51.046;7.010;2022-09-14T10:18:07;3.92;;;2.58;;
3081;SDS011;1551;51.046;7.010;2022-09-14T10:21:03;4.78;;;3.10;;
3081;SDS011;1551;51.046;7.010;2022-09-14T10:24:02;6.85;;;3.95;;
3081;SDS011;1551;51.046;7.010;2022-09-14T10:26:54;4.53;;;3.88;;
3081;SDS011;1551;51.046;7.010;2022-09-14T10:29:43;4.25;;;3.85;;
3081;SDS011;1551;51.046;7.010;2022-09-14T10:32:33;5.22;;;3.05;;
3081;SDS011;1551;51.046;7.010;2022-09-14T10:35:25;4.75;;;3.50;;
3081;SDS011;1551;51.046;7.010;2022-09-14T10:38:29;3.38;;;2.40;;
3081;SDS011;1551;51.046;7.010;2022-09-14T10:54:32;4.70;;;2.63;;
3081;SDS011;1551;51.046;7.010;2022-09-14T11:00:39;2.88;;;2.10;;
3081;SDS011;1551;51.046;7.010;2022-09-14T11:03:39;3.78;;;2.47;;
3081;SDS011;1551;51.046;7.010;2022-09-14T11:13:28;3.92;;;1.98;;
3081;SDS011;1551;51.046;7.010;2022-09-14T11:16:48;4.00;;;2.28;;
3081;SDS011;1551;51.046;7.010;2022-09-14T11:26:21;4.47;;;2.37;;
3081;SDS011;1551;51.046;7.010;2022-09-14T11:32:21;3.17;;;2.47;;
3081;SDS011;1551;51.046;7.010;2022-09-14T11:35:21;4.22;;;2.78;;
3081;SDS011;1551;51.046;7.010;2022-09-14T11:38:18;5.33;;;2.70;;
3081;SDS011;1551;51.046;7.010;2022-09-14T11:44:21;6.80;;;2.60;;
3081;SDS011;1551;51.046;7.010;2022-09-14T11:47:15;7.57;;;3.40;;
3081;SDS011;1551;51.046;7.010;2022-09-14T11:50:14;5.72;;;2.53;;
3081;SDS011;1551;51.046;7.010;2022-09-14T11:53:14;3.27;;;2.30;;
3081;SDS011;1551;51.046;7.010;2022-09-14T11:56:04;4.45;;;2.40;;
3081;SDS011;1551;51.046;7.010;2022-09-14T11:58:54;3.20;;;2.30;;
3081;SDS011;1551;51.046;7.010;2022-09-14T12:01:45;5.28;;;2.58;;
3081;SDS011;1551;51.046;7.010;2022-09-14T12:04:35;3.58;;;2.00;;
3081;SDS011;1551;51.046;7.010;2022-09-14T12:10:57;4.15;;;1.90;;
3081;SDS011;1551;51.046;7.010;2022-09-14T12:17:22;3.10;;;2.00;;
3081;SDS011;1551;51.046;7.010;2022-09-14T12:23:28;3.90;;;1.57;;
3081;SDS011;1551;51.046;7.010;2022-09-14T12:29:32;2.97;;;1.80;;
3081;SDS011;1551;51.046;7.010;2022-09-14T12:32:39;5.43;;;2.30;;
3081;SDS011;1551;51.046;7.010;2022-09-14T12:44:27;6.13;;;3.78;;
3081;SDS011;1551;51.046;7.010;2022-09-14T12:50:17;5.80;;;3.50;;
3081;SDS011;1551;51.046;7.010;2022-09-14T12:53:18;5.97;;;3.00;;
3081;SDS011;1551;51.046;7.010;2022-09-14T12:56:17;4.87;;;2.40;;
3081;SDS011;1551;51.046;7.010;2022-09-14T13:02:29;4.30;;;2.00;;
3081;SDS011;1551;51.046;7.010;2022-09-14T13:05:34;2.90;;;1.70;;
3081;SDS011;1551;51.046;7.010;2022-09-14T13:08:24;3.80;;;1.52;;
3081;SDS011;1551;51.046;7.010;2022-09-14T13:11:17;3.10;;;2.50;;
3081;SDS011;1551;51.046;7.010;2022-09-14T13:14:15;4.70;;;1.88;;
3081;SDS011;1551;51.046;7.010;2022-09-14T13:17:09;2.38;;;1.50;;
3081;SDS011;1551;51.046;7.010;2022-09-14T13:20:02;3.13;;;1.40;;
3081;SDS011;1551;51.046;7.010;2022-09-14T13:22:53;2.20;;;1.40;;
3081;SDS011;1551;51.046;7.010;2022-09-14T13:25:42;3.10;;;1.50;;
3081;SDS011;1551;51.046;7.010;2022-09-14T13:28:31;2.20;;;1.60;;
3081;SDS011;1551;51.046;7.010;2022-09-14T13:31:32;2.90;;;1.40;;
3081;SDS011;1551;51.046;7.010;2022-09-14T13:34:24;2.70;;;1.40;;
3081;SDS011;1551;51.046;7.010;2022-09-14T13:37:16;1.90;;;1.38;;
3081;SDS011;1551;51.046;7.010;2022-09-14T13:40:07;2.72;;;1.80;;
3081;SDS011;1551;51.046;7.010;2022-09-14T13:42:57;2.38;;;1.40;;
3081;SDS011;1551;51.046;7.010;2022-09-14T13:45:47;2.97;;;1.58;;
3081;SDS011;1551;51.046;7.010;2022-09-14T13:48:38;2.92;;;1.50;;
3081;SDS011;1551;51.046;7.010;2022-09-14T13:51:29;2.10;;;1.40;;
3081;SDS011;1551;51.046;7.010;2022-09-14T13:54:24;2.70;;;1.52;;
3081;SDS011;1551;51.046;7.010;2022-09-14T13:57:16;3.40;;;1.60;;
3081;SDS011;1551;51.046;7.010;2022-09-14T14:03:03;2.60;;;1.83;;
3081;SDS011;1551;51.046;7.010;2022-09-14T14:05:52;4.10;;;1.70;;
3081;SDS011;1551;51.046;7.010;2022-09-14T14:08:42;2.00;;;1.40;;
3081;SDS011;1551;51.046;7.010;2022-09-14T14:11:37;2.90;;;1.40;;
3081;SDS011;1551;51.046;7.010;2022-09-14T14:14:35;2.50;;;1.67;;
3081;SDS011;1551;51.046;7.010;2022-09-14T14:26:13;2.53;;;1.65;;
3081;SDS011;1551;51.046;7.010;2022-09-14T14:29:08;2.30;;;1.60;;
3081;SDS011;1551;51.046;7.010;2022-09-14T14:31:57;2.92;;;2.00;;
3081;SDS011;1551;51.046;7.010;2022-09-14T14:34:47;3.10;;;1.60;;
3081;SDS011;1551;51.046;7.010;2022-09-14T14:37:36;2.00;;;1.50;;
3081;SDS011;1551;51.046;7.010;2022-09-14T14:40:25;2.70;;;2.10;;
3081;SDS011;1551;51.046;7.010;2022-09-14T14:43:18;3.28;;;2.10;;
3081;SDS011;1551;51.046;7.010;2022-09-14T14:46:09;2.70;;;1.98;;
3081;SDS011;1551;51.046;7.010;2022-09-14T14:48:58;2.67;;;1.90;;
3081;SDS011;1551;51.046;7.010;2022-09-14T14:51:47;3.60;;;1.80;;
3081;SDS011;1551;51.046;7.010;2022-09-14T14:54:36;3.30;;;1.60;;
3081;SDS011;1551;51.046;7.010;2022-09-14T14:57:29;3.28;;;2.03;;
3081;SDS011;1551;51.046;7.010;2022-09-14T15:00:19;2.25;;;1.80;;
3081;SDS011;1551;51.046;7.010;2022-09-14T15:03:10;2.72;;;2.03;;
3081;SDS011;1551;51.046;7.010;2022-09-14T15:05:59;3.10;;;2.28;;
3081;SDS011;1551;51.046;7.010;2022-09-14T15:08:51;3.10;;;2.17;;
3081;SDS011;1551;51.046;7.010;2022-09-14T15:11:42;4.05;;;2.70;;
3081;SDS011;1551;51.046;7.010;2022-09-14T15:14:31;3.90;;;2.70;;
3081;SDS011;1551;51.046;7.010;2022-09-14T15:17:20;3.75;;;2.92;;
3081;SDS011;1551;51.046;7.010;2022-09-14T15:20:09;2.90;;;2.30;;
3081;SDS011;1551;51.046;7.010;2022-09-14T15:22:59;3.17;;;2.50;;
3081;SDS011;1551;51.046;7.010;2022-09-14T15:25:49;3.50;;;1.70;;
3081;SDS011;1551;51.046;7.010;2022-09-14T15:28:39;3.20;;;2.00;;
3081;SDS011;1551;51.046;7.010;2022-09-14T15:31:28;2.70;;;1.80;;
3081;SDS011;1551;51.046;7.010;2022-09-14T15:34:18;3.67;;;2.05;;
3081;SDS011;1551;51.046;7.010;2022-09-14T15:37:07;2.83;;;2.30;;
3081;SDS011;1551;51.046;7.010;2022-09-14T15:39:57;3.35;;;1.90;;
3081;SDS011;1551;51.046;7.010;2022-09-14T15:42:46;2.60;;;1.60;;
3081;SDS011;1551;51.046;7.010;2022-09-14T15:45:35;2.40;;;1.80;;
3081;SDS011;1551;51.046;7.010;2022-09-14T15:48:24;2.60;;;1.90;;
3081;SDS011;1551;51.046;7.010;2022-09-14T15:51:13;2.60;;;1.70;;
3081;SDS011;1551;51.046;7.010;2022-09-14T15:54:02;4.03;;;1.95;;
3081;SDS011;1551;51.046;7.010;2022-09-14T15:56:53;2.08;;;1.52;;
3081;SDS011;1551;51.046;7.010;2022-09-14T15:59:44;2.83;;;2.00;;
3081;SDS011;1551;51.046;7.010;2022-09-14T16:02:33;3.90;;;1.80;;
3081;SDS011;1551;51.046;7.010;2022-09-14T16:05:22;2.80;;;1.85;;
3081;SDS011;1551;51.046;7.010;2022-09-14T16:08:11;2.58;;;1.70;;
3081;SDS011;1551;51.046;7.010;2022-09-14T16:11:01;2.88;;;2.40;;
3081;SDS011;1551;51.046;7.010;2022-09-14T16:13:51;2.53;;;1.85;;
3081;SDS011;1551;51.046;7.010;2022-09-14T16:16:40;3.10;;;2.10;;
3081;SDS011;1551;51.046;7.010;2022-09-14T16:19:29;2.22;;;1.60;;
3081;SDS011;1551;51.046;7.010;2022-09-14T16:22:19;2.50;;;2.10;;
3081;SDS011;1551;51.046;7.010;2022-09-14T16:25:09;3.22;;;2.10;;
3081;SDS011;1551;51.046;7.010;2022-09-14T16:27:58;2.50;;;2.10;;
3081;SDS011;1551;51.046;7.010;2022-09-14T16:30:47;4.63;;;1.98;;
3081;SDS011;1551;51.046;7.010;2022-09-14T16:33:37;3.03;;;2.00;;
3081;SDS011;1551;51.046;7.010;2022-09-14T16:36:29;3.80;;;2.40;;
3081;SDS011;1551;51.046;7.010;2022-09-14T16:39:20;4.22;;;2.80;;
3081;SDS011;1551;51.046;7.010;2022-09-14T16:42:11;3.90;;;2.17;;
3081;SDS011;1551;51.046;7.010;2022-09-14T16:45:00;3.20;;;2.20;;
3081;SDS011;1551;51.046;7.010;2022-09-14T16:47:49;3.20;;;2.10;;
3081;SDS011;1551;51.046;7.010;2022-09-14T16:50:38;3.10;;;1.92;;
3081;SDS011;1551;51.046;7.010;2022-09-14T16:53:28;3.40;;;2.50;;
3081;SDS011;1551;51.046;7.010;2022-09-14T16:59:08;2.80;;;2.03;;
3081;SDS011;1551;51.046;7.010;2022-09-14T17:01:57;3.27;;;2.73;;
3081;SDS011;1551;51.046;7.010;2022-09-14T17:04:46;2.80;;;2.30;;
3081;SDS011;1551;51.046;7.010;2022-09-14T17:07:35;2.73;;;2.20;;
3081;SDS011;1551;51.046;7.010;2022-09-14T17:10:24;4.00;;;2.90;;
3081;SDS011;1551;51.046;7.010;2022-09-14T17:13:13;4.00;;;3.10;;
3081;SDS011;1551;51.046;7.010;2022-09-14T17:16:04;3.60;;;2.90;;
3081;SDS011;1551;51.046;7.010;2022-09-14T17:18:56;3.90;;;2.05;;
3081;SDS011;1551;51.046;7.010;2022-09-14T17:21:47;5.82;;;3.40;;
3081;SDS011;1551;51.046;7.010;2022-09-14T17:24:36;4.15;;;3.17;;
3081;SDS011;1551;51.046;7.010;2022-09-14T17:27:26;3.30;;;2.70;;
3081;SDS011;1551;51.046;7.010;2022-09-14T17:30:15;4.43;;;2.00;;
3081;SDS011;1551;51.046;7.010;2022-09-14T17:33:04;5.00;;;2.50;;
3081;SDS011;1551;51.046;7.010;2022-09-14T17:35:54;3.78;;;3.13;;
3081;SDS011;1551;51.046;7.010;2022-09-14T17:38:44;4.97;;;3.35;;
3081;SDS011;1551;51.046;7.010;2022-09-14T17:41:33;5.53;;;4.00;;
3081;SDS011;1551;51.046;7.010;2022-09-14T17:44:25;4.77;;;3.63;;
3081;SDS011;1551;51.046;7.010;2022-09-14T17:47:15;4.88;;;4.00;;
3081;SDS011;1551;51.046;7.010;2022-09-14T17:50:04;4.05;;;3.65;;
3081;SDS011;1551;51.046;7.010;2022-09-14T17:52:54;4.20;;;3.70;;
3081;SDS011;1551;51.046;7.010;2022-09-14T17:55:43;3.33;;;2.90;;
3081;SDS011;1551;51.046;7.010;2022-09-14T17:58:32;4.63;;;3.10;;
3081;SDS011;1551;51.046;7.010;2022-09-14T18:01:21;4.30;;;3.20;;
3081;SDS011;1551;51.046;7.010;2022-09-14T18:04:12;4.53;;;2.97;;
3081;SDS011;1551;51.046;7.010;2022-09-14T18:07:03;5.18;;;3.42;;
3081;SDS011;1551;51.046;7.010;2022-09-14T18:09:53;3.80;;;3.40;;
3081;SDS011;1551;51.046;7.010;2022-09-14T18:12:42;6.20;;;3.93;;
3081;SDS011;1551;51.046;7.010;2022-09-14T18:15:32;4.27;;;3.60;;
3081;SDS011;1551;51.046;7.010;2022-09-14T18:18:21;5.30;;;3.55;;
3081;SDS011;1551;51.046;7.010;2022-09-14T18:21:10;3.55;;;3.25;;
3081;SDS011;1551;51.046;7.010;2022-09-14T18:24:00;4.57;;;3.37;;
3081;SDS011;1551;51.046;7.010;2022-09-14T18:26:49;4.45;;;3.60;;
3081;SDS011;1551;51.046;7.010;2022-09-14T18:29:38;5.40;;;4.28;;
3081;SDS011;1551;51.046;7.010;2022-09-14T18:32:27;4.60;;;3.40;;
3081;SDS011;1551;51.046;7.010;2022-09-14T18:35:16;5.07;;;4.22;;
3081;SDS011;1551;51.046;7.010;2022-09-14T18:38:05;5.63;;;4.40;;
3081;SDS011;1551;51.046;7.010;2022-09-14T18:40:55;5.03;;;3.70;;
3081;SDS011;1551;51.046;7.010;2022-09-14T18:43:51;4.80;;;3.88;;
3081;SDS011;1551;51.046;7.010;2022-09-14T18:46:40;4.50;;;4.10;;
3081;SDS011;1551;51.046;7.010;2022-09-14T18:49:32;4.80;;;4.20;;
3081;SDS011;1551;51.046;7.010;2022-09-14T18:52:21;5.03;;;4.30;;
3081;SDS011;1551;51.046;7.010;2022-09-14T18:55:10;6.80;;;5.00;;
3081;SDS011;1551;51.046;7.010;2022-09-14T18:57:59;5.88;;;4.57;;
3081;SDS011;1551;51.046;7.010;2022-09-14T19:00:48;7.20;;;6.00;;
3081;SDS011;1551;51.046;7.010;2022-09-14T19:03:38;5.75;;;5.10;;
3081;SDS011;1551;51.046;7.010;2022-09-14T19:06:27;6.00;;;4.75;;
3081;SDS011;1551;51.046;7.010;2022-09-14T19:09:16;7.30;;;6.00;;
3081;SDS011;1551;51.046;7.010;2022-09-14T19:12:06;7.53;;;5.70;;
3081;SDS011;1551;51.046;7.010;2022-09-14T19:14:55;7.55;;;6.60;;
3081;SDS011;1551;51.046;7.010;2022-09-14T19:17:44;6.40;;;5.80;;
3081;SDS011;1551;51.046;7.010;2022-09-14T19:20:36;5.93;;;5.32;;
3081;SDS011;1551;51.046;7.010;2022-09-14T19:23:26;7.53;;;6.77;;
3081;SDS011;1551;51.046;7.010;2022-09-14T19:26:17;6.20;;;5.60;;
3081;SDS011;1551;51.046;7.010;2022-09-14T19:29:08;8.67;;;7.07;;
3081;SDS011;1551;51.046;7.010;2022-09-14T19:31:57;6.53;;;5.40;;
3081;SDS011;1551;51.046;7.010;2022-09-14T19:34:47;9.50;;;8.60;;
3081;SDS011;1551;51.046;7.010;2022-09-14T19:37:37;10.40;;;9.30;;
3081;SDS011;1551;51.046;7.010;2022-09-14T19:40:25;10.07;;;8.90;;
3081;SDS011;1551;51.046;7.010;2022-09-14T19:43:15;7.20;;;6.50;;
3081;SDS011;1551;51.046;7.010;2022-09-14T19:46:05;9.37;;;8.47;;
3081;SDS011;1551;51.046;7.010;2022-09-14T19:49:02;10.93;;;9.52;;
3081;SDS011;1551;51.046;7.010;2022-09-14T19:51:51;11.57;;;10.38;;